Back to Top

Language: 

My Weather Underground Personal Weather Station Historical Data with Graphs...

Delerius Weather Station Historical Data
Daily Summary for April 4, 2017 Units:  English    Metric   Both
« Previous Day
Next Day »
Daily Weekly Monthly Yearly Custom
  High: Low: Average:
Temperature: 59.0 °F 44.2 °F 51.5 °F
Dew Point: 50.0 °F 38.5 °F 45.2 °F
Humidity: 91 % 56 % 80 %
Wind Speed: 11.0 mph 0.0 mph 5 mph
Wind Gust: 21.0 mph - -
Wind:- - WNW
Pressure: 30.43 in 30.12 in -
Precipitation: 0.00 in    
Historical Graphs
 
 
Tabular Data for April 4, 2017
Time Temperature Dew Point Pressure Wind Wind Speed Wind Gust Humidity Rainfall Rate (Hourly) solar Conditions
00:01 52.5 °F 45.5 °F 30.14 in Calm   5.0 mph 77 % 0.00 in 0 W/m2
00:06 52.5 °F 45.5 °F 30.14 in Calm   4.0 mph 77 % 0.00 in 0 W/m2
00:11 52.5 °F 45.5 °F 30.14 in NW 1.0 mph 6.0 mph 77 % 0.00 in 0 W/m2
00:16 52.5 °F 45.2 °F 30.14 in West 2.0 mph 8.0 mph 76 % 0.00 in 0 W/m2
00:21 52.7 °F 45.3 °F 30.14 in SSW 3.0 mph 10.0 mph 76 % 0.00 in 0 W/m2
00:26 52.7 °F 45.3 °F 30.14 in SSE 1.0 mph 10.0 mph 76 % 0.00 in 0 W/m2
00:31 52.7 °F 45.3 °F 30.14 in SSW 1.0 mph 8.0 mph 76 % 0.00 in 0 W/m2
00:36 52.7 °F 45.3 °F 30.13 in SSW 5.0 mph 11.0 mph 76 % 0.00 in 0 W/m2
00:42 52.7 °F 45.3 °F 30.13 in SSW 8.0 mph 14.0 mph 76 % 0.00 in 0 W/m2
00:47 52.5 °F 45.2 °F 30.13 in SW 8.0 mph 14.0 mph 76 % 0.00 in 0 W/m2
00:52 52.3 °F 45.3 °F 30.13 in WSW 6.0 mph 9.0 mph 77 % 0.00 in 0 W/m2
00:57 52.3 °F 45.3 °F 30.12 in WSW 5.0 mph 12.0 mph 77 % 0.00 in 0 W/m2
01:02 52.2 °F 45.2 °F 30.12 in WSW 5.0 mph 12.0 mph 77 % 0.00 in 0 W/m2
01:07 52.0 °F 45.0 °F 30.12 in WSW 3.0 mph 10.0 mph 77 % 0.00 in 0 W/m2
01:12 52.0 °F 45.3 °F 30.13 in West 2.0 mph 8.0 mph 78 % 0.00 in 0 W/m2
01:17 51.8 °F 45.2 °F 30.12 in WSW 3.0 mph 8.0 mph 78 % 0.00 in 0 W/m2
01:22 51.6 °F 45.0 °F 30.12 in SW 5.0 mph 8.0 mph 78 % 0.00 in 0 W/m2
01:27 51.4 °F 45.1 °F 30.12 in SW 5.0 mph 9.0 mph 79 % 0.00 in 0 W/m2
01:32 51.3 °F 45.0 °F 30.12 in SSW 5.0 mph 9.0 mph 79 % 0.00 in 0 W/m2
01:37 51.3 °F 45.0 °F 30.12 in SW 4.0 mph 8.0 mph 79 % 0.00 in 0 W/m2
01:42 51.1 °F 45.1 °F 30.12 in SW 6.0 mph 9.0 mph 80 % 0.00 in 0 W/m2
01:47 51.1 °F 45.1 °F 30.12 in SW 7.0 mph 12.0 mph 80 % 0.00 in 0 W/m2
01:52 50.9 °F 45.3 °F 30.12 in SW 7.0 mph 14.0 mph 81 % 0.00 in 0 W/m2
01:57 50.7 °F 45.1 °F 30.12 in SW 7.0 mph 14.0 mph 81 % 0.00 in 0 W/m2
02:02 50.7 °F 45.1 °F 30.12 in SW 6.0 mph 11.0 mph 81 % 0.00 in 0 W/m2
02:07 50.5 °F 44.9 °F 30.12 in SW 4.0 mph 11.0 mph 81 % 0.00 in 0 W/m2
02:12 50.5 °F 45.2 °F 30.12 in SW 2.0 mph 7.0 mph 82 % 0.00 in 0 W/m2
02:17 50.4 °F 45.1 °F 30.12 in SW 1.0 mph 4.0 mph 82 % 0.00 in 0 W/m2
02:22 50.2 °F 44.9 °F 30.12 in SW 1.0 mph 2.0 mph 82 % 0.00 in 0 W/m2
02:27 50.0 °F 45.0 °F 30.12 in South 1.0 mph 5.0 mph 83 % 0.00 in 0 W/m2
02:32 49.8 °F 44.9 °F 30.12 in Calm   5.0 mph 83 % 0.00 in 0 W/m2
02:37 49.6 °F 45.0 °F 30.12 in Calm   2.0 mph 84 % 0.00 in 0 W/m2
02:42 49.5 °F 44.8 °F 30.12 in Calm   1.0 mph 84 % 0.00 in 0 W/m2
02:47 49.5 °F 45.1 °F 30.13 in Calm   1.0 mph 85 % 0.00 in 0 W/m2
02:52 49.5 °F 44.8 °F 30.13 in Calm   1.0 mph 84 % 0.00 in 0 W/m2
02:57 49.3 °F 45.0 °F 30.13 in WNW 1.0 mph 7.0 mph 85 % 0.00 in 0 W/m2
03:02 49.5 °F 45.4 °F 30.14 in WNW 3.0 mph 7.0 mph 86 % 0.00 in 0 W/m2
03:07 49.6 °F 45.6 °F 30.14 in WNW 4.0 mph 7.0 mph 86 % 0.00 in 0 W/m2
03:12 49.6 °F 45.6 °F 30.14 in WNW 3.0 mph 7.0 mph 86 % 0.00 in 0 W/m2
03:17 49.8 °F 45.8 °F 30.14 in WNW 3.0 mph 6.0 mph 86 % 0.00 in 0 W/m2
03:23 49.8 °F 45.8 °F 30.14 in WNW 2.0 mph 6.0 mph 86 % 0.00 in 0 W/m2
03:28 49.8 °F 45.8 °F 30.14 in WNW 2.0 mph 6.0 mph 86 % 0.00 in 0 W/m2
03:33 49.8 °F 45.8 °F 30.14 in WNW 1.0 mph 6.0 mph 86 % 0.00 in 0 W/m2
03:38 49.8 °F 45.8 °F 30.14 in WNW 1.0 mph 5.0 mph 86 % 0.00 in 0 W/m2
03:43 49.8 °F 45.8 °F 30.14 in Calm   5.0 mph 86 % 0.00 in 0 W/m2
03:48 49.8 °F 45.8 °F 30.14 in Calm   2.0 mph 86 % 0.00 in 0 W/m2
03:53 49.8 °F 45.8 °F 30.14 in Calm   1.0 mph 86 % 0.00 in 0 W/m2
03:58 49.6 °F 45.6 °F 30.14 in Calm   1.0 mph 86 % 0.00 in 0 W/m2
04:03 49.5 °F 45.4 °F 30.14 in Calm     86 % 0.00 in 0 W/m2
04:08 49.1 °F 45.1 °F 30.14 in Calm     86 % 0.00 in 0 W/m2
04:13 48.9 °F 44.9 °F 30.15 in Calm   7.0 mph 86 % 0.00 in 0 W/m2
04:18 48.9 °F 45.5 °F 30.15 in WNW 1.0 mph 7.0 mph 88 % 0.00 in 0 W/m2
04:23 48.9 °F 45.5 °F 30.15 in WNW 1.0 mph 4.0 mph 88 % 0.00 in 0 W/m2
04:28 48.9 °F 45.5 °F 30.15 in WNW 2.0 mph 5.0 mph 88 % 0.00 in 0 W/m2
04:33 48.9 °F 45.5 °F 30.15 in WNW 3.0 mph 6.0 mph 88 % 0.00 in 0 W/m2
04:38 48.9 °F 45.5 °F 30.15 in WNW 3.0 mph 6.0 mph 88 % 0.00 in 0 W/m2
04:43 49.1 °F 46.0 °F 30.15 in West 3.0 mph 7.0 mph 89 % 0.00 in 0 W/m2
04:48 49.3 °F 46.2 °F 30.15 in West 2.0 mph 7.0 mph 89 % 0.00 in 0 W/m2
04:53 49.3 °F 45.9 °F 30.15 in Calm   4.0 mph 88 % 0.00 in 0 W/m2
04:58 49.3 °F 45.9 °F 30.16 in Calm   2.0 mph 88 % 0.00 in 0 W/m2
05:03 49.1 °F 45.7 °F 30.15 in WSW 2.0 mph 7.0 mph 88 % 0.00 in 0 W/m2
05:08 48.9 °F 45.5 °F 30.15 in SW 4.0 mph 7.0 mph 88 % 0.00 in 0 W/m2
05:13 48.7 °F 45.3 °F 30.15 in WSW 4.0 mph 7.0 mph 88 % 0.00 in 0 W/m2
05:18 48.7 °F 45.6 °F 30.16 in West 3.0 mph 6.0 mph 89 % 0.00 in 0 W/m2
05:19 48.7 °F 45.6 °F 30.16 in West 3.0 mph 6.0 mph 89 % 0.00 in 0 W/m2
05:24 48.6 °F 45.5 °F 30.16 in West 3.0 mph 5.0 mph 89 % 0.00 in 0 W/m2
05:29 48.6 °F 45.5 °F 30.16 in WNW 3.0 mph 5.0 mph 89 % 0.00 in 0 W/m2
05:34 48.6 °F 45.8 °F 30.16 in WNW 4.0 mph 7.0 mph 90 % 0.00 in 0 W/m2
05:39 48.6 °F 45.8 °F 30.16 in WNW 4.0 mph 7.0 mph 90 % 0.00 in 0 W/m2
05:44 48.6 °F 46.1 °F 30.17 in WNW 4.0 mph 8.0 mph 91 % 0.00 in 0 W/m2
05:49 48.7 °F 46.2 °F 30.17 in WNW 3.0 mph 8.0 mph 91 % 0.00 in 0 W/m2
05:54 48.7 °F 46.2 °F 30.17 in WNW 2.0 mph 7.0 mph 91 % 0.00 in 0 W/m2
05:59 48.9 °F 46.4 °F 30.17 in WNW 3.0 mph 6.0 mph 91 % 0.00 in 0 W/m2
06:04 49.1 °F 46.6 °F 30.18 in WNW 3.0 mph 6.0 mph 91 % 0.00 in 0 W/m2
06:09 49.3 °F 46.8 °F 30.18 in WNW 2.0 mph 6.0 mph 91 % 0.00 in 0 W/m2
06:14 49.5 °F 46.9 °F 30.18 in WNW 2.0 mph 6.0 mph 91 % 0.00 in 0 W/m2
06:19 49.6 °F 47.1 °F 30.18 in WNW 2.0 mph 6.0 mph 91 % 0.00 in 0 W/m2
06:24 49.8 °F 47.3 °F 30.18 in WNW 3.0 mph 6.0 mph 91 % 0.00 in 0 W/m2
06:29 49.8 °F 47.3 °F 30.18 in West 3.0 mph 6.0 mph 91 % 0.00 in 0 W/m2
06:34 49.8 °F 47.0 °F 30.18 in West 1.0 mph 5.0 mph 90 % 0.00 in 0 W/m2
06:39 49.8 °F 47.0 °F 30.19 in West 1.0 mph 4.0 mph 90 % 0.00 in 7 W/m2
06:44 49.8 °F 47.0 °F 30.19 in Calm   3.0 mph 90 % 0.00 in 12 W/m2
06:49 49.8 °F 47.0 °F 30.19 in West 1.0 mph 7.0 mph 90 % 0.00 in 18 W/m2
06:54 49.8 °F 47.0 °F 30.19 in West 2.0 mph 7.0 mph 90 % 0.00 in 19 W/m2
06:59 49.8 °F 47.0 °F 30.19 in WNW 1.0 mph 4.0 mph 90 % 0.00 in 30 W/m2
07:04 49.8 °F 47.0 °F 30.19 in WNW 2.0 mph 5.0 mph 90 % 0.00 in 26 W/m2
07:09 49.8 °F 47.0 °F 30.19 in WNW 3.0 mph 6.0 mph 90 % 0.00 in 16 W/m2
07:14 49.6 °F 46.8 °F 30.19 in West 3.0 mph 6.0 mph 90 % 0.00 in 21 W/m2
07:19 49.6 °F 46.8 °F 30.19 in West 3.0 mph 6.0 mph 90 % 0.00 in 23 W/m2
07:24 49.5 °F 46.6 °F 30.20 in West 3.0 mph 5.0 mph 90 % 0.00 in 62 W/m2
07:29 49.5 °F 46.6 °F 30.20 in West 2.0 mph 5.0 mph 90 % 0.00 in 62 W/m2
07:34 49.6 °F 47.1 °F 30.20 in West 3.0 mph 8.0 mph 91 % 0.00 in 49 W/m2
07:40 49.8 °F 47.3 °F 30.20 in West 4.0 mph 8.0 mph 91 % 0.00 in 86 W/m2
07:45 50.2 °F 47.7 °F 30.21 in West 3.0 mph 8.0 mph 91 % 0.00 in 69 W/m2
07:49 50.4 °F 47.8 °F 30.20 in West 3.0 mph 7.0 mph 91 % 0.00 in 63 W/m2
07:55 50.7 °F 48.2 °F 30.21 in West 5.0 mph 13.0 mph 91 % 0.00 in 67 W/m2
08:00 50.9 °F 48.4 °F 30.21 in West 7.0 mph 14.0 mph 91 % 0.00 in 60 W/m2
08:05 51.3 °F 48.7 °F 30.21 in WNW 7.0 mph 16.0 mph 91 % 0.00 in 105 W/m2
08:10 51.4 °F 48.6 °F 30.21 in West 6.0 mph 16.0 mph 90 % 0.00 in 211 W/m2
08:15 52.0 °F 49.1 °F 30.21 in West 5.0 mph 11.0 mph 90 % 0.00 in 237 W/m2
08:20 52.5 °F 49.4 °F 30.22 in West 4.0 mph 7.0 mph 89 % 0.00 in 102 W/m2
08:25 52.9 °F 49.4 °F 30.22 in WNW 3.0 mph 7.0 mph 88 % 0.00 in 167 W/m2
08:30 53.2 °F 49.8 °F 30.22 in NW 3.0 mph 7.0 mph 88 % 0.00 in 237 W/m2
08:35 53.4 °F 49.6 °F 30.22 in NW 4.0 mph 9.0 mph 87 % 0.00 in 83 W/m2
08:40 53.4 °F 49.3 °F 30.23 in WNW 5.0 mph 11.0 mph 86 % 0.00 in 113 W/m2
08:45 53.4 °F 49.3 °F 30.23 in WNW 6.0 mph 11.0 mph 86 % 0.00 in 121 W/m2
08:50 53.4 °F 49.3 °F 30.23 in NW 5.0 mph 11.0 mph 86 % 0.00 in 69 W/m2
08:55 53.4 °F 49.3 °F 30.23 in NW 4.0 mph 9.0 mph 86 % 0.00 in 113 W/m2
09:00 53.4 °F 49.3 °F 30.23 in NW 5.0 mph 11.0 mph 86 % 0.00 in 149 W/m2
09:05 53.4 °F 49.3 °F 30.24 in NW 5.0 mph 11.0 mph 86 % 0.00 in 153 W/m2
09:10 53.4 °F 49.3 °F 30.24 in NW 5.0 mph 12.0 mph 86 % 0.00 in 125 W/m2
09:15 53.6 °F 49.5 °F 30.24 in NW 5.0 mph 12.0 mph 86 % 0.00 in 116 W/m2
09:20 53.6 °F 49.5 °F 30.24 in NW 3.0 mph 9.0 mph 86 % 0.00 in 200 W/m2
09:25 53.8 °F 49.7 °F 30.25 in NNW 1.0 mph 8.0 mph 86 % 0.00 in 123 W/m2
09:30 54.0 °F 49.9 °F 30.25 in NNW 3.0 mph 10.0 mph 86 % 0.00 in 109 W/m2
09:35 54.0 °F 49.9 °F 30.25 in NW 4.0 mph 10.0 mph 86 % 0.00 in 100 W/m2
09:40 54.1 °F 50.0 °F 30.26 in NW 3.0 mph 8.0 mph 86 % 0.00 in 95 W/m2
09:45 54.1 °F 49.7 °F 30.26 in NW 3.0 mph 10.0 mph 85 % 0.00 in 62 W/m2
09:50 54.1 °F 49.7 °F 30.26 in NW 3.0 mph 7.0 mph 85 % 0.00 in 88 W/m2
09:55 54.0 °F 49.6 °F 30.26 in NW 4.0 mph 8.0 mph 85 % 0.00 in 63 W/m2
10:00 54.0 °F 49.6 °F 30.26 in NW 4.0 mph 8.0 mph 85 % 0.00 in 54 W/m2
10:06 54.0 °F 49.6 °F 30.27 in NW 4.0 mph 8.0 mph 85 % 0.00 in 58 W/m2
10:11 54.0 °F 49.6 °F 30.27 in NW 4.0 mph 9.0 mph 85 % 0.00 in 88 W/m2
10:16 54.0 °F 49.6 °F 30.27 in NW 5.0 mph 9.0 mph 85 % 0.00 in 56 W/m2
10:21 54.0 °F 49.6 °F 30.27 in NW 5.0 mph 11.0 mph 85 % 0.00 in 67 W/m2
10:26 53.8 °F 49.4 °F 30.27 in NW 5.0 mph 11.0 mph 85 % 0.00 in 60 W/m2
10:31 53.8 °F 49.7 °F 30.28 in NW 5.0 mph 10.0 mph 86 % 0.00 in 47 W/m2
10:36 53.8 °F 49.4 °F 30.28 in NNW 4.0 mph 8.0 mph 85 % 0.00 in 47 W/m2
10:41 53.6 °F 49.2 °F 30.28 in NNW 3.0 mph 8.0 mph 85 % 0.00 in 54 W/m2
10:46 53.4 °F 49.3 °F 30.28 in NNW 3.0 mph 8.0 mph 86 % 0.00 in 58 W/m2
10:51 53.4 °F 49.3 °F 30.28 in NNW 3.0 mph 8.0 mph 86 % 0.00 in 58 W/m2
10:56 53.4 °F 49.3 °F 30.29 in NNW 3.0 mph 9.0 mph 86 % 0.00 in 60 W/m2
11:01 53.4 °F 49.3 °F 30.29 in NW 5.0 mph 9.0 mph 86 % 0.00 in 62 W/m2
11:06 53.4 °F 49.3 °F 30.29 in NW 5.0 mph 9.0 mph 86 % 0.00 in 63 W/m2
11:11 53.4 °F 49.3 °F 30.29 in NW 5.0 mph 10.0 mph 86 % 0.00 in 69 W/m2
11:16 53.4 °F 49.3 °F 30.29 in WNW 6.0 mph 10.0 mph 86 % 0.00 in 67 W/m2
11:21 53.4 °F 49.3 °F 30.29 in NW 6.0 mph 13.0 mph 86 % 0.00 in 69 W/m2
11:26 53.2 °F 49.2 °F 30.30 in NW 6.0 mph 13.0 mph 86 % 0.00 in 67 W/m2
11:31 53.2 °F 49.2 °F 30.30 in NW 6.0 mph 11.0 mph 86 % 0.00 in 63 W/m2
11:36 53.1 °F 49.3 °F 30.30 in NW 6.0 mph 12.0 mph 87 % 0.00 in 76 W/m2
11:41 53.1 °F 49.3 °F 30.30 in NW 6.0 mph 12.0 mph 87 % 0.00 in 74 W/m2
11:46 52.9 °F 49.1 °F 30.30 in WNW 6.0 mph 12.0 mph 87 % 0.00 in 83 W/m2
11:51 53.1 °F 49.3 °F 30.30 in WNW 5.0 mph 10.0 mph 87 % 0.00 in 72 W/m2
11:56 53.1 °F 49.3 °F 30.30 in WNW 5.0 mph 10.0 mph 87 % 0.00 in 65 W/m2
12:01 53.1 °F 49.3 °F 30.31 in WNW 6.0 mph 13.0 mph 87 % 0.00 in 49 W/m2
12:06 52.9 °F 49.1 °F 30.31 in WNW 7.0 mph 13.0 mph 87 % 0.00 in 40 W/m2
12:11 52.7 °F 48.9 °F 30.31 in WNW 8.0 mph 14.0 mph 87 % 0.00 in 37 W/m2
12:16 52.3 °F 48.6 °F 30.32 in WNW 9.0 mph 14.0 mph 87 % 0.00 in 40 W/m2
12:21 52.2 °F 48.7 °F 30.32 in WNW 9.0 mph 16.0 mph 88 % 0.00 in 47 W/m2
12:26 52.0 °F 48.5 °F 30.32 in WNW 9.0 mph 16.0 mph 88 % 0.00 in 54 W/m2
12:31 51.6 °F 48.2 °F 30.32 in WNW 9.0 mph 16.0 mph 88 % 0.00 in 58 W/m2
12:32 51.6 °F 48.2 °F 30.32 in WNW 9.0 mph 16.0 mph 88 % 0.00 in 58 W/m2
12:37 51.4 °F 48.0 °F 30.32 in WNW 8.0 mph 15.0 mph 88 % 0.00 in 72 W/m2
12:42 51.4 °F 48.0 °F 30.32 in WNW 7.0 mph 15.0 mph 88 % 0.00 in 74 W/m2
12:47 51.6 °F 48.2 °F 30.33 in WNW 7.0 mph 13.0 mph 88 % 0.00 in 74 W/m2
12:52 51.6 °F 48.2 °F 30.33 in WNW 7.0 mph 13.0 mph 88 % 0.00 in 77 W/m2
12:57 51.6 °F 48.2 °F 30.33 in WNW 8.0 mph 14.0 mph 88 % 0.00 in 77 W/m2
13:02 51.6 °F 48.2 °F 30.33 in WNW 7.0 mph 14.0 mph 88 % 0.00 in 76 W/m2
13:07 51.8 °F 48.4 °F 30.33 in WNW 6.0 mph 12.0 mph 88 % 0.00 in 67 W/m2
13:12 51.8 °F 48.1 °F 30.33 in WNW 6.0 mph 11.0 mph 87 % 0.00 in 67 W/m2
13:14 51.8 °F 48.1 °F 30.33 in WNW 6.0 mph 11.0 mph 87 % 0.00 in 65 W/m2
13:19 52.0 °F 48.2 °F 30.33 in WNW 7.0 mph 11.0 mph 87 % 0.00 in 76 W/m2
13:24 51.8 °F 48.1 °F 30.33 in WNW 7.0 mph 14.0 mph 87 % 0.00 in 79 W/m2
13:29 51.8 °F 48.4 °F 30.33 in WNW 7.0 mph 14.0 mph 88 % 0.00 in 88 W/m2
13:34 51.8 °F 48.4 °F 30.33 in WNW 5.0 mph 11.0 mph 88 % 0.00 in 116 W/m2
13:39 51.8 °F 48.4 °F 30.33 in WNW 5.0 mph 8.0 mph 88 % 0.00 in 116 W/m2
13:44 52.0 °F 48.2 °F 30.33 in WNW 6.0 mph 10.0 mph 87 % 0.00 in 137 W/m2
13:49 52.0 °F 48.2 °F 30.34 in WNW 6.0 mph 10.0 mph 87 % 0.00 in 207 W/m2
13:54 52.3 °F 48.3 °F 30.34 in WNW 6.0 mph 10.0 mph 86 % 0.00 in 267 W/m2
13:59 52.9 °F 48.5 °F 30.34 in WNW 6.0 mph 10.0 mph 85 % 0.00 in 137 W/m2
14:04 53.1 °F 47.7 °F 30.34 in WNW 6.0 mph 11.0 mph 82 % 0.00 in 130 W/m2
14:09 53.2 °F 47.6 °F 30.34 in NW 7.0 mph 12.0 mph 81 % 0.00 in 151 W/m2
14:14 53.2 °F 47.6 °F 30.34 in NW 7.0 mph 12.0 mph 81 % 0.00 in 130 W/m2
14:19 53.4 °F 48.1 °F 30.34 in NW 6.0 mph 11.0 mph 82 % 0.00 in 139 W/m2
14:24 53.4 °F 47.7 °F 30.34 in WNW 6.0 mph 10.0 mph 81 % 0.00 in 172 W/m2
14:29 53.4 °F 47.7 °F 30.34 in WNW 6.0 mph 10.0 mph 81 % 0.00 in 206 W/m2
14:34 53.4 °F 47.7 °F 30.34 in WNW 5.0 mph 9.0 mph 81 % 0.00 in 260 W/m2
14:39 53.8 °F 47.8 °F 30.34 in WNW 5.0 mph 12.0 mph 80 % 0.00 in 264 W/m2
14:44 54.1 °F 47.4 °F 30.34 in WNW 6.0 mph 12.0 mph 78 % 0.00 in 176 W/m2
14:49 54.3 °F 47.3 °F 30.34 in NW 6.0 mph 11.0 mph 77 % 0.00 in 207 W/m2
14:54 54.3 °F 46.6 °F 30.34 in NW 7.0 mph 13.0 mph 75 % 0.00 in 274 W/m2
14:59 54.9 °F 47.4 °F 30.34 in WNW 6.0 mph 13.0 mph 76 % 0.00 in 330 W/m2
15:04 55.2 °F 46.7 °F 30.34 in WNW 6.0 mph 12.0 mph 73 % 0.00 in 323 W/m2
15:10 55.6 °F 46.3 °F 30.34 in WNW 6.0 mph 12.0 mph 71 % 0.00 in 301 W/m2
15:15 55.9 °F 45.9 °F 30.33 in WNW 7.0 mph 12.0 mph 69 % 0.00 in 304 W/m2
15:20 56.1 °F 44.9 °F 30.33 in WNW 8.0 mph 14.0 mph 66 % 0.00 in 454 W/m2
15:25 56.7 °F 45.4 °F 30.33 in WNW 8.0 mph 15.0 mph 66 % 0.00 in 798 W/m2
15:30 57.0 °F 45.0 °F 30.33 in WNW 9.0 mph 15.0 mph 64 % 0.00 in 301 W/m2
15:35 57.4 °F 44.9 °F 30.33 in WNW 8.0 mph 15.0 mph 63 % 0.00 in 538 W/m2
15:40 57.7 °F 44.8 °F 30.33 in NW 8.0 mph 15.0 mph 62 % 0.00 in 649 W/m2
15:45 58.3 °F 45.3 °F 30.33 in NW 8.0 mph 15.0 mph 62 % 0.00 in 601 W/m2
15:50 58.6 °F 44.3 °F 30.33 in WNW 8.0 mph 15.0 mph 59 % 0.00 in 564 W/m2
15:55 58.8 °F 44.5 °F 30.33 in WNW 8.0 mph 15.0 mph 59 % 0.00 in 589 W/m2
16:00 58.8 °F 44.1 °F 30.33 in WNW 8.0 mph 14.0 mph 58 % 0.00 in 568 W/m2
16:05 58.6 °F 44.3 °F 30.33 in West 9.0 mph 16.0 mph 59 % 0.00 in 541 W/m2
16:10 58.6 °F 43.9 °F 30.33 in WNW 10.0 mph 18.0 mph 58 % 0.00 in 534 W/m2
16:15 58.6 °F 43.9 °F 30.33 in WNW 9.0 mph 18.0 mph 58 % 0.00 in 534 W/m2
16:20 58.6 °F 43.9 °F 30.33 in WNW 9.0 mph 16.0 mph 58 % 0.00 in 508 W/m2
16:25 58.8 °F 43.6 °F 30.33 in WNW 7.0 mph 16.0 mph 57 % 0.00 in 482 W/m2
16:30 58.8 °F 44.1 °F 30.33 in WNW 8.0 mph 15.0 mph 58 % 0.00 in 471 W/m2
16:35 59.0 °F 43.3 °F 30.34 in WNW 9.0 mph 19.0 mph 56 % 0.00 in 446 W/m2
16:40 58.8 °F 43.1 °F 30.34 in NW 8.0 mph 19.0 mph 56 % 0.00 in 408 W/m2
16:45 58.8 °F 43.1 °F 30.34 in WNW 6.0 mph 14.0 mph 56 % 0.00 in 411 W/m2
16:50 58.8 °F 43.1 °F 30.34 in WNW 5.0 mph 10.0 mph 56 % 0.00 in 454 W/m2
16:51 58.6 °F 43.4 °F 30.34 in WNW 6.0 mph 14.0 mph 57 % 0.00 in 454 W/m2
16:55 58.3 °F 43.1 °F 30.34 in WNW 8.0 mph 21.0 mph 57 % 0.00 in 120 W/m2
17:01 57.6 °F 42.4 °F 30.34 in WNW 9.0 mph 21.0 mph 57 % 0.00 in 98 W/m2
17:06 57.2 °F 43.0 °F 30.34 in NW 6.0 mph 14.0 mph 59 % 0.00 in 88 W/m2
17:11 56.8 °F 43.1 °F 30.34 in NW 5.0 mph 9.0 mph 60 % 0.00 in 102 W/m2
17:16 56.5 °F 43.2 °F 30.34 in NW 6.0 mph 11.0 mph 61 % 0.00 in 118 W/m2
17:21 56.5 °F 43.2 °F 30.34 in WNW 7.0 mph 12.0 mph 61 % 0.00 in 100 W/m2
17:26 56.3 °F 43.4 °F 30.35 in WNW 6.0 mph 12.0 mph 62 % 0.00 in 111 W/m2
17:31 56.7 °F 43.8 °F 30.35 in WNW 8.0 mph 14.0 mph 62 % 0.00 in 285 W/m2
17:36 56.8 °F 44.0 °F 30.35 in WNW 9.0 mph 15.0 mph 62 % 0.00 in 281 W/m2
17:41 56.7 °F 43.8 °F 30.35 in WNW 10.0 mph 16.0 mph 62 % 0.00 in 253 W/m2
17:46 56.7 °F 44.2 °F 30.35 in WNW 11.0 mph 16.0 mph 63 % 0.00 in 246 W/m2
17:51 56.5 °F 44.0 °F 30.35 in WNW 10.0 mph 16.0 mph 63 % 0.00 in 211 W/m2
17:52 56.5 °F 44.4 °F 30.35 in WNW 10.0 mph 16.0 mph 64 % 0.00 in 202 W/m2
17:57 56.1 °F 44.1 °F 30.35 in WNW 10.0 mph 18.0 mph 64 % 0.00 in 176 W/m2
18:02 55.8 °F 43.8 °F 30.36 in WNW 10.0 mph 18.0 mph 64 % 0.00 in 172 W/m2
18:07 55.6 °F 44.4 °F 30.36 in WNW 9.0 mph 18.0 mph 66 % 0.00 in 163 W/m2
18:12 55.2 °F 44.1 °F 30.36 in WNW 9.0 mph 18.0 mph 66 % 0.00 in 149 W/m2
18:17 54.9 °F 43.7 °F 30.36 in WNW 11.0 mph 18.0 mph 66 % 0.00 in 153 W/m2
18:22 54.7 °F 43.9 °F 30.36 in WNW 11.0 mph 20.0 mph 67 % 0.00 in 134 W/m2
18:27 54.3 °F 43.6 °F 30.36 in WNW 9.0 mph 20.0 mph 67 % 0.00 in 116 W/m2
18:32 54.1 °F 43.4 °F 30.36 in WNW 9.0 mph 19.0 mph 67 % 0.00 in 88 W/m2
18:37 53.8 °F 43.5 °F 30.36 in WNW 11.0 mph 19.0 mph 68 % 0.00 in 97 W/m2
18:42 53.4 °F 43.1 °F 30.36 in WNW 10.0 mph 18.0 mph 68 % 0.00 in 77 W/m2
18:47 53.2 °F 43.3 °F 30.37 in WNW 9.0 mph 16.0 mph 69 % 0.00 in 65 W/m2
18:52 52.9 °F 43.4 °F 30.37 in WNW 8.0 mph 14.0 mph 70 % 0.00 in 60 W/m2
18:57 52.5 °F 43.0 °F 30.37 in WNW 8.0 mph 16.0 mph 70 % 0.00 in 67 W/m2
19:02 52.3 °F 42.8 °F 30.37 in WNW 8.0 mph 18.0 mph 70 % 0.00 in 60 W/m2
19:07 52.2 °F 42.7 °F 30.37 in WNW 9.0 mph 18.0 mph 70 % 0.00 in 54 W/m2
19:12 52.0 °F 42.5 °F 30.37 in WNW 9.0 mph 14.0 mph 70 % 0.00 in 33 W/m2
19:17 51.6 °F 42.2 °F 30.37 in WNW 8.0 mph 14.0 mph 70 % 0.00 in 28 W/m2
19:22 51.4 °F 42.0 °F 30.38 in WNW 8.0 mph 13.0 mph 70 % 0.00 in 23 W/m2
19:25 51.3 °F 42.2 °F 30.38 in WNW 7.0 mph 12.0 mph 71 % 0.00 in 23 W/m2
19:30 51.1 °F 42.4 °F 30.38 in WNW 6.0 mph 11.0 mph 72 % 0.00 in 19 W/m2
19:35 50.7 °F 42.0 °F 30.38 in WNW 6.0 mph 13.0 mph 72 % 0.00 in 12 W/m2
19:40 50.5 °F 41.8 °F 30.38 in WNW 7.0 mph 14.0 mph 72 % 0.00 in 9 W/m2
19:45 50.4 °F 42.0 °F 30.38 in WNW 7.0 mph 14.0 mph 73 % 0.00 in 5 W/m2
19:50 50.0 °F 41.7 °F 30.38 in WNW 6.0 mph 12.0 mph 73 % 0.00 in 0 W/m2
19:55 49.8 °F 41.5 °F 30.39 in WNW 7.0 mph 12.0 mph 73 % 0.00 in 0 W/m2
20:00 49.6 °F 41.7 °F 30.39 in WNW 6.0 mph 13.0 mph 74 % 0.00 in 0 W/m2
20:01 49.6 °F 41.7 °F 30.39 in WNW 7.0 mph 15.0 mph 74 % 0.00 in 0 W/m2
20:06 49.5 °F 41.5 °F 30.39 in WNW 8.0 mph 15.0 mph 74 % 0.00 in 0 W/m2
20:11 49.3 °F 41.3 °F 30.40 in WNW 8.0 mph 15.0 mph 74 % 0.00 in 0 W/m2
20:16 49.1 °F 41.2 °F 30.40 in WNW 9.0 mph 18.0 mph 74 % 0.00 in 0 W/m2
20:21 48.9 °F 41.0 °F 30.40 in WNW 10.0 mph 18.0 mph 74 % 0.00 in 0 W/m2
20:26 48.7 °F 40.8 °F 30.40 in WNW 9.0 mph 15.0 mph 74 % 0.00 in 0 W/m2
20:32 48.7 °F 40.8 °F 30.40 in WNW 9.0 mph 18.0 mph 74 % 0.00 in 0 W/m2
20:37 48.6 °F 40.6 °F 30.40 in WNW 9.0 mph 18.0 mph 74 % 0.00 in 0 W/m2
20:42 48.4 °F 40.5 °F 30.40 in WNW 8.0 mph 14.0 mph 74 % 0.00 in 0 W/m2
20:47 48.4 °F 40.8 °F 30.41 in WNW 7.0 mph 14.0 mph 75 % 0.00 in 0 W/m2
20:52 48.0 °F 40.5 °F 30.40 in WNW 6.0 mph 11.0 mph 75 % 0.00 in 0 W/m2
20:57 47.8 °F 40.3 °F 30.41 in WNW 5.0 mph 11.0 mph 75 % 0.00 in 0 W/m2
21:02 47.8 °F 40.3 °F 30.41 in West 5.0 mph 11.0 mph 75 % 0.00 in 0 W/m2
21:07 47.7 °F 40.5 °F 30.41 in WNW 4.0 mph 11.0 mph 76 % 0.00 in 0 W/m2
21:12 47.7 °F 40.5 °F 30.41 in WNW 4.0 mph 10.0 mph 76 % 0.00 in 0 W/m2
21:17 47.5 °F 40.3 °F 30.41 in WNW 4.0 mph 8.0 mph 76 % 0.00 in 0 W/m2
21:22 47.3 °F 40.5 °F 30.41 in WNW 5.0 mph 10.0 mph 77 % 0.00 in 0 W/m2
21:27 47.1 °F 40.3 °F 30.41 in WNW 6.0 mph 10.0 mph 77 % 0.00 in 0 W/m2
21:32 47.1 °F 40.3 °F 30.41 in WNW 6.0 mph 11.0 mph 77 % 0.00 in 0 W/m2
21:37 46.9 °F 40.1 °F 30.41 in WNW 5.0 mph 11.0 mph 77 % 0.00 in 0 W/m2
21:42 46.8 °F 39.9 °F 30.42 in West 3.0 mph 8.0 mph 77 % 0.00 in 0 W/m2
21:47 46.6 °F 40.1 °F 30.42 in WNW 3.0 mph 8.0 mph 78 % 0.00 in 0 W/m2
21:52 46.2 °F 39.7 °F 30.42 in WNW 4.0 mph 9.0 mph 78 % 0.00 in 0 W/m2
21:57 46.2 °F 39.7 °F 30.42 in WNW 5.0 mph 10.0 mph 78 % 0.00 in 0 W/m2
22:02 46.0 °F 39.6 °F 30.42 in WNW 5.0 mph 10.0 mph 78 % 0.00 in 0 W/m2
22:07 46.0 °F 39.6 °F 30.42 in WNW 4.0 mph 9.0 mph 78 % 0.00 in 0 W/m2
22:12 45.9 °F 39.4 °F 30.42 in WNW 2.0 mph 9.0 mph 78 % 0.00 in 0 W/m2
22:17 45.9 °F 39.4 °F 30.42 in West 2.0 mph 6.0 mph 78 % 0.00 in 0 W/m2
22:22 45.9 °F 39.4 °F 30.43 in West 1.0 mph 6.0 mph 78 % 0.00 in 0 W/m2
22:27 45.7 °F 39.2 °F 30.43 in Calm   4.0 mph 78 % 0.00 in 0 W/m2
22:32 45.3 °F 38.9 °F 30.43 in Calm   1.0 mph 78 % 0.00 in 0 W/m2
22:37 45.1 °F 39.0 °F 30.43 in Calm   3.0 mph 79 % 0.00 in 0 W/m2
22:42 44.8 °F 38.7 °F 30.43 in West 1.0 mph 4.0 mph 79 % 0.00 in 0 W/m2
22:47 44.8 °F 39.0 °F 30.43 in WNW 1.0 mph 4.0 mph 80 % 0.00 in 0 W/m2
22:52 44.6 °F 38.8 °F 30.43 in WNW 2.0 mph 9.0 mph 80 % 0.00 in 0 W/m2
22:57 44.6 °F 38.8 °F 30.43 in WNW 4.0 mph 10.0 mph 80 % 0.00 in 0 W/m2
23:02 44.6 °F 38.8 °F 30.43 in WNW 6.0 mph 13.0 mph 80 % 0.00 in 0 W/m2
23:07 44.6 °F 38.8 °F 30.43 in WNW 7.0 mph 13.0 mph 80 % 0.00 in 0 W/m2
23:12 44.6 °F 38.8 °F 30.43 in WNW 5.0 mph 10.0 mph 80 % 0.00 in 0 W/m2
23:17 44.4 °F 38.6 °F 30.43 in WNW 4.0 mph 9.0 mph 80 % 0.00 in 0 W/m2
23:22 44.4 °F 38.6 °F 30.43 in WNW 3.0 mph 9.0 mph 80 % 0.00 in 0 W/m2
23:27 44.2 °F 38.5 °F 30.43 in WNW 2.0 mph 8.0 mph 80 % 0.00 in 0 W/m2
23:32 44.2 °F 38.5 °F 30.43 in WNW 4.0 mph 13.0 mph 80 % 0.00 in 0 W/m2
23:37 44.2 °F 38.5 °F 30.43 in WNW 5.0 mph 13.0 mph 80 % 0.00 in 0 W/m2
23:43 44.2 °F 38.5 °F 30.43 in WNW 6.0 mph 11.0 mph 80 % 0.00 in 0 W/m2
23:48 44.2 °F 38.5 °F 30.42 in WNW 6.0 mph 12.0 mph 80 % 0.00 in 0 W/m2
23:53 44.2 °F 38.5 °F 30.42 in WNW 6.0 mph 12.0 mph 80 % 0.00 in 0 W/m2
23:58 44.2 °F 38.5 °F 30.42 in WNW 4.0 mph 11.0 mph 80 % 0.00 in 0 W/m2
Delerius-Weather
Compliments of Weather Underground - 2.25 mb

Data updates at regular intervals.